createdAt,value
2022-11-20T00:01:12.364Z,101254.50
2022-11-20T00:03:42.156Z,101283.66
2022-11-20T00:06:13.973Z,101302.41
2022-11-20T00:08:43.104Z,101299.00
2022-11-20T00:11:16.586Z,101290.41
2022-11-20T00:13:46.476Z,101308.31
2022-11-20T00:16:17.613Z,101311.69
2022-11-20T00:18:46.724Z,101298.88
2022-11-20T00:21:18.479Z,101277.44
2022-11-20T00:23:47.510Z,101295.47
2022-11-20T00:26:22.363Z,101282.56
2022-11-20T00:28:53.591Z,101294.59
2022-11-20T00:31:22.633Z,101293.72
2022-11-20T00:33:51.494Z,101287.72
2022-11-20T00:36:21.997Z,101227.91
2022-11-20T00:38:54.625Z,101288.59
2022-11-20T00:41:25.912Z,101270.56
2022-11-20T00:43:55.755Z,101273.94
2022-11-20T00:46:26.294Z,101293.69
2022-11-20T00:48:55.254Z,101291.97
2022-11-20T00:51:27.514Z,101292.81
2022-11-20T00:53:58.373Z,101280.13
2022-11-20T00:56:31.291Z,101279.34
2022-11-20T00:59:02.601Z,101279.34
2022-11-20T01:01:33.401Z,101273.22
2022-11-20T01:04:02.923Z,101271.34
2022-11-20T01:06:33.968Z,101275.72
2022-11-20T01:09:07.100Z,101264.81
2022-11-20T01:11:39.624Z,101264.78
2022-11-20T01:14:12.053Z,101269.00
2022-11-20T01:16:42.907Z,101268.06
2022-11-20T01:19:17.669Z,101277.38
2022-11-20T01:21:49.934Z,101267.94
2022-11-20T01:24:26.863Z,101257.75
2022-11-20T01:26:57.925Z,101267.16
2022-11-20T01:29:27.740Z,101219.16
2022-11-20T01:31:57.404Z,101275.53
2022-11-20T01:34:27.140Z,101273.84
2022-11-20T01:36:59.512Z,101267.84
2022-11-20T01:39:29.612Z,101254.16
2022-11-20T01:42:18.556Z,101266.06
2022-11-20T01:44:54.710Z,101091.69
2022-11-20T01:47:30.773Z,101246.53
2022-11-20T01:50:05.631Z,101249.16
2022-11-20T01:52:38.982Z,101286.56
2022-11-20T01:55:12.285Z,101244.84
2022-11-20T01:57:46.752Z,101244.78
2022-11-20T02:00:17.857Z,101242.19
2022-11-20T02:02:52.578Z,101248.94
2022-11-20T02:05:27.876Z,101242.84
2022-11-20T02:08:01.166Z,101258.16
2022-11-20T02:10:31.352Z,101212.94
2022-11-20T02:13:19.519Z,101259.16
2022-11-20T02:15:48.991Z,101260.91
2022-11-20T02:18:23.002Z,101258.34
2022-11-20T02:20:58.947Z,101260.94
2022-11-20T02:23:34.913Z,101014.72
2022-11-20T02:26:13.476Z,101259.19
2022-11-20T02:28:42.165Z,101253.91
2022-11-20T02:31:11.622Z,101255.72
2022-11-20T02:33:42.430Z,101251.03
2022-11-20T02:36:16.564Z,101252.59
2022-11-20T02:38:48.349Z,101252.34
2022-11-20T02:41:18.958Z,101269.25
2022-11-20T02:43:47.666Z,101229.09
2022-11-20T02:46:18.708Z,101210.25
2022-11-20T02:48:47.808Z,101241.50
2022-11-20T02:51:17.651Z,101238.94
2022-11-20T02:53:46.311Z,101232.25
2022-11-20T02:56:15.860Z,101237.00
2022-11-20T02:58:48.754Z,101229.97
2022-11-20T03:01:20.451Z,101235.81
2022-11-20T03:03:50.391Z,101236.81
2022-11-20T03:06:21.698Z,101241.97
2022-11-20T03:08:50.427Z,101220.53
2022-11-20T03:11:20.362Z,101214.50
2022-11-20T03:13:50.678Z,101215.19
2022-11-20T03:16:25.100Z,101225.44
2022-11-20T03:18:54.965Z,101184.50
2022-11-20T03:21:26.214Z,101213.69
2022-11-20T03:23:55.509Z,101206.22
2022-11-20T03:26:28.204Z,101204.31
2022-11-20T03:29:00.002Z,101193.94
2022-11-20T03:31:30.733Z,101196.44
2022-11-20T03:34:06.904Z,101193.75
2022-11-20T03:36:35.821Z,101183.72
2022-11-20T03:39:05.650Z,101180.44
2022-11-20T03:41:39.089Z,101176.06
2022-11-20T03:44:12.694Z,101163.06
2022-11-20T03:46:41.420Z,101174.22
2022-11-20T03:49:10.684Z,101179.28
2022-11-20T03:51:42.099Z,101185.16
2022-11-20T03:54:11.606Z,101040.69
2022-11-20T03:56:40.833Z,101154.56
2022-11-20T03:59:13.429Z,101176.97
2022-11-20T04:01:44.333Z,101169.41
2022-11-20T04:04:15.773Z,101169.28
2022-11-20T04:06:44.999Z,101159.66
2022-11-20T04:09:17.683Z,101155.53
2022-11-20T04:11:46.470Z,101165.69
2022-11-20T04:14:18.064Z,101145.19
2022-11-20T04:16:47.054Z,101008.41
2022-11-20T04:19:18.319Z,101158.06
2022-11-20T04:21:47.266Z,101157.34
2022-11-20T04:24:16.655Z,101158.25
2022-11-20T04:26:45.770Z,101155.44
2022-11-20T04:29:16.971Z,101148.63
2022-11-20T04:31:45.584Z,101135.56
2022-11-20T04:34:14.835Z,101136.78
2022-11-20T04:36:43.512Z,101132.69
2022-11-20T04:39:43.814Z,101121.88
2022-11-20T04:42:31.693Z,101063.81
2022-11-20T04:45:02.628Z,101125.22
2022-11-20T04:47:32.144Z,101128.50
2022-11-20T04:50:01.769Z,101126.91
2022-11-20T04:52:31.132Z,101113.16
2022-11-20T04:55:00.700Z,101066.22
2022-11-20T04:57:29.847Z,101119.25
2022-11-20T04:59:59.043Z,101124.41
2022-11-20T05:02:29.955Z,101116.66
2022-11-20T05:04:59.454Z,101121.00
2022-11-20T05:07:28.739Z,101064.69
2022-11-20T05:09:57.976Z,101085.31
2022-11-20T05:12:27.473Z,101101.41
2022-11-20T05:14:56.950Z,101118.47
2022-11-20T05:17:26.214Z,101118.50
2022-11-20T05:19:56.838Z,101120.03
2022-11-20T05:22:28.732Z,101133.41
2022-11-20T05:24:58.206Z,101125.72
2022-11-20T05:27:27.683Z,100943.81
2022-11-20T05:30:00.673Z,101108.69
2022-11-20T05:32:29.792Z,101125.56
2022-11-20T05:35:00.741Z,101124.63
2022-11-20T05:37:29.915Z,101132.31
2022-11-20T05:39:59.805Z,101134.91
2022-11-20T05:42:34.868Z,101139.22
2022-11-20T05:45:07.116Z,101134.84
2022-11-20T05:47:37.251Z,101134.09
2022-11-20T05:50:09.099Z,101131.63
2022-11-20T05:52:38.251Z,101127.47
2022-11-20T05:55:08.447Z,101114.66
2022-11-20T05:57:37.939Z,101123.28
2022-11-20T06:00:08.689Z,101121.81
2022-11-20T06:02:38.370Z,101119.34
2022-11-20T06:05:10.120Z,101127.94
2022-11-20T06:07:39.557Z,101112.41
2022-11-20T06:10:10.683Z,101120.97
2022-11-20T06:12:40.291Z,101126.97
2022-11-20T06:15:11.527Z,101121.19
2022-11-20T06:17:41.538Z,101116.13
2022-11-20T06:20:13.428Z,101102.53
2022-11-20T06:22:43.511Z,101093.06
2022-11-20T06:25:13.972Z,101092.88
2022-11-20T06:27:43.993Z,101092.84
2022-11-20T06:30:15.537Z,101084.34
2022-11-20T06:32:46.190Z,101080.13
2022-11-20T06:35:17.928Z,101054.91
2022-11-20T06:37:49.689Z,101082.97
2022-11-20T06:40:19.510Z,101077.69
2022-11-20T06:42:48.989Z,101080.25
2022-11-20T06:45:18.570Z,101086.13
2022-11-20T06:47:48.290Z,101083.59
2022-11-20T06:50:19.357Z,100893.06
2022-11-20T06:52:52.429Z,101104.84
2022-11-20T06:55:21.667Z,101075.06
2022-11-20T06:57:53.379Z,101086.78
2022-11-20T07:00:25.381Z,101077.22
2022-11-20T07:02:55.094Z,101076.50
2022-11-20T07:05:25.599Z,101032.03
2022-11-20T07:07:58.462Z,101087.59
2022-11-20T07:10:28.180Z,101084.94
2022-11-20T07:12:57.727Z,101089.03
2022-11-20T07:15:29.347Z,101077.31
2022-11-20T07:18:01.325Z,101112.13
2022-11-20T07:20:33.769Z,101076.50
2022-11-20T07:23:03.087Z,100978.28
2022-11-20T07:25:32.451Z,101079.72
2022-11-20T07:28:03.132Z,101072.13
2022-11-20T07:30:32.773Z,101076.41
2022-11-20T07:33:02.491Z,101074.72
2022-11-20T07:35:36.941Z,100984.13
2022-11-20T07:38:07.397Z,101085.84
2022-11-20T07:40:36.833Z,101013.41
2022-11-20T07:43:06.578Z,101074.09
2022-11-20T07:45:38.381Z,101027.97
2022-11-20T07:48:08.188Z,101071.44
2022-11-20T07:50:44.262Z,101064.69
2022-11-20T07:53:13.765Z,101063.13
2022-11-20T07:55:46.126Z,101057.22
2022-11-20T07:58:16.203Z,101070.72
2022-11-20T08:00:45.301Z,101075.81
2022-11-20T08:03:15.324Z,100884.38
2022-11-20T08:05:49.573Z,101069.75
2022-11-20T08:08:19.292Z,101064.69
2022-11-20T08:10:49.868Z,101080.22
2022-11-20T08:13:37.653Z,101081.88
2022-11-20T08:16:07.261Z,101085.22
2022-11-20T08:18:36.239Z,101064.84
2022-11-20T08:21:07.984Z,101082.94
2022-11-20T08:23:37.271Z,101075.13
2022-11-20T08:26:07.008Z,101074.41
2022-11-20T08:28:36.403Z,101064.31
2022-11-20T08:31:06.090Z,101067.69
2022-11-20T08:33:35.754Z,101064.31
2022-11-20T08:36:07.984Z,101064.13
2022-11-20T08:38:37.625Z,101060.19
2022-11-20T08:41:26.710Z,101054.13
2022-11-20T08:43:59.265Z,100975.69
2022-11-20T08:46:34.302Z,101066.97
2022-11-20T08:49:07.361Z,101054.97
2022-11-20T08:51:41.333Z,100993.53
2022-11-20T08:54:13.562Z,101032.84
2022-11-20T08:56:42.772Z,101041.34
2022-11-20T08:59:50.936Z,101043.91
2022-11-20T09:02:02.405Z,101044.72
2022-11-20T09:04:33.921Z,101059.25
2022-11-20T09:07:05.276Z,101058.50
2022-11-20T09:09:34.926Z,101048.28
2022-11-20T09:12:05.244Z,101053.41
2022-11-20T09:14:35.424Z,100887.13
2022-11-20T09:17:06.128Z,101047.50
2022-11-20T09:19:40.720Z,101020.31
2022-11-20T09:22:12.167Z,101016.00
2022-11-20T09:24:41.587Z,101031.38
2022-11-20T09:27:12.259Z,101026.94
2022-11-20T09:29:45.977Z,101010.03
2022-11-20T09:32:15.360Z,100990.50
2022-11-20T09:34:44.736Z,101000.69
2022-11-20T09:37:15.992Z,101003.28
2022-11-20T09:39:45.890Z,101016.91
2022-11-20T09:42:30.200Z,101021.19
2022-11-20T09:45:20.944Z,101005.84
2022-11-20T09:48:02.540Z,100926.59
2022-11-20T09:50:38.021Z,100986.28
2022-11-20T09:53:15.752Z,100981.16
2022-11-20T09:55:45.262Z,100972.66
2022-11-20T09:58:25.169Z,100965.88
2022-11-20T10:00:59.682Z,100959.03
2022-11-20T10:03:40.006Z,100974.38
2022-11-20T10:06:14.799Z,100964.13
2022-11-20T10:08:50.729Z,100957.31
2022-11-20T10:11:31.423Z,100949.63
2022-11-20T10:14:13.052Z,100950.50
2022-11-20T10:16:49.688Z,100950.47
2022-11-20T10:19:35.154Z,100942.84
2022-11-20T10:22:16.475Z,100938.50
2022-11-20T10:24:55.207Z,100701.91
2022-11-20T10:27:44.041Z,100929.97
2022-11-20T10:30:15.468Z,100913.75
2022-11-20T10:32:46.768Z,100913.78
2022-11-20T10:35:23.346Z,100908.72
2022-11-20T10:37:58.682Z,100904.34
2022-11-20T10:40:37.541Z,100894.94
2022-11-20T10:43:14.827Z,100849.78
2022-11-20T10:45:51.505Z,100882.13
2022-11-20T10:48:23.853Z,100865.06
2022-11-20T10:51:01.843Z,100865.13
2022-11-20T10:53:57.872Z,100868.53
2022-11-20T10:56:37.694Z,100853.03
2022-11-20T10:59:34.723Z,100837.63
2022-11-20T11:02:17.379Z,100830.75
2022-11-20T11:04:48.408Z,100819.75
2022-11-20T11:07:22.331Z,100806.91
2022-11-20T11:09:54.229Z,100816.34
2022-11-20T11:12:27.515Z,100822.25
2022-11-20T11:15:00.060Z,100817.69
2022-11-20T11:17:31.259Z,100830.59
2022-11-20T11:20:17.615Z,100407.63
2022-11-20T11:22:49.633Z,100588.19
2022-11-20T11:25:31.077Z,100805.69
2022-11-20T11:28:03.333Z,100590.81
2022-11-20T11:30:44.388Z,100807.34
2022-11-20T11:33:21.265Z,100797.25
2022-11-20T11:35:53.511Z,100788.53
2022-11-20T11:38:29.638Z,100770.19
2022-11-20T11:40:59.874Z,100772.25
2022-11-20T11:43:50.702Z,100763.47
2022-11-20T11:46:31.309Z,100753.09
2022-11-20T11:49:02.058Z,100753.28
2022-11-20T11:51:38.589Z,100737.03
2022-11-20T11:54:16.849Z,100735.09
2022-11-20T11:56:46.573Z,100736.88
2022-11-20T11:59:25.751Z,100728.56
2022-11-20T12:01:59.331Z,100725.06
2022-11-20T12:04:45.752Z,100705.34
2022-11-20T12:07:46.203Z,100708.81
2022-11-20T12:10:21.950Z,100701.00
2022-11-20T12:12:58.585Z,100693.31
2022-11-20T12:15:36.101Z,100649.03
2022-11-20T12:18:22.323Z,100637.78
2022-11-20T12:21:02.531Z,100647.81
2022-11-20T12:23:39.783Z,100644.41
2022-11-20T12:26:22.120Z,100642.59
2022-11-20T12:29:04.330Z,100633.97
2022-11-20T12:32:04.851Z,100647.78
2022-11-20T12:34:53.238Z,100647.63
2022-11-20T12:37:35.743Z,100619.09
2022-11-20T12:40:19.879Z,100638.59
2022-11-20T12:43:16.828Z,100637.94
2022-11-20T12:46:05.971Z,100555.53
2022-11-20T12:48:49.287Z,100632.69
2022-11-20T12:51:29.147Z,100644.69
2022-11-20T12:54:13.580Z,100652.97
2022-11-20T12:56:51.244Z,100647.16
2022-11-20T12:59:34.445Z,100619.94
2022-11-20T13:02:16.689Z,100634.28
2022-11-20T13:05:01.745Z,100603.06
2022-11-20T13:07:32.672Z,100616.13
2022-11-20T13:10:02.292Z,100507.56
2022-11-20T13:12:36.699Z,100604.34
2022-11-20T13:15:16.140Z,100564.28
2022-11-20T13:17:51.198Z,100602.09
2022-11-20T13:20:50.786Z,100581.56
2022-11-20T13:23:27.898Z,100578.25
2022-11-20T13:26:19.171Z,100581.19
2022-11-20T13:28:49.641Z,100577.28
2022-11-20T13:31:33.052Z,100552.69
2022-11-20T13:34:05.215Z,100546.03
2022-11-20T13:36:37.615Z,100539.84
2022-11-20T13:39:07.368Z,100546.41
2022-11-20T13:41:39.215Z,100546.72
2022-11-20T13:44:15.624Z,100313.19
2022-11-20T13:46:46.898Z,100537.72
2022-11-20T13:49:25.055Z,100552.44
2022-11-20T13:52:06.859Z,100539.00
2022-11-20T13:55:01.099Z,100534.00
2022-11-20T13:57:41.095Z,100519.75
2022-11-20T14:00:14.642Z,100510.75
2022-11-20T14:02:45.132Z,100514.13
2022-11-20T14:05:22.688Z,100508.53
2022-11-20T14:07:55.143Z,100507.88
2022-11-20T14:10:31.729Z,100504.44
2022-11-20T14:13:13.101Z,100509.66
2022-11-20T14:15:45.194Z,100504.50
2022-11-20T14:18:23.684Z,100495.84
2022-11-20T14:20:52.933Z,100493.06
2022-11-20T14:23:31.211Z,100495.41
2022-11-20T14:26:00.723Z,100341.56
2022-11-20T14:28:33.600Z,100444.78
2022-11-20T14:31:03.329Z,100477.72
2022-11-20T14:33:35.889Z,100258.53
2022-11-20T14:36:05.515Z,100083.63
2022-11-20T14:38:36.269Z,100451.66
2022-11-20T14:41:09.421Z,100428.84
2022-11-20T14:43:38.881Z,100426.34
2022-11-20T14:46:10.913Z,100404.38
2022-11-20T14:48:43.324Z,100398.22
2022-11-20T14:51:13.632Z,100389.50
2022-11-20T14:53:44.071Z,100405.00
2022-11-20T14:56:13.250Z,100405.63
2022-11-20T14:58:42.408Z,100406.44
2022-11-20T15:01:15.557Z,100404.94
2022-11-20T15:03:44.885Z,100350.78
2022-11-20T15:06:15.059Z,100395.66
2022-11-20T15:08:54.951Z,100399.88
2022-11-20T15:11:32.603Z,100385.16
2022-11-20T15:14:06.370Z,100373.81
2022-11-20T15:16:35.914Z,100365.63
2022-11-20T15:19:19.514Z,100358.34
2022-11-20T15:21:48.740Z,100351.72
2022-11-20T15:24:19.649Z,100346.09
2022-11-20T15:26:48.811Z,100335.03
2022-11-20T15:29:20.480Z,100339.66
2022-11-20T15:31:52.389Z,100335.47
2022-11-20T15:34:22.294Z,100333.09
2022-11-20T15:36:51.746Z,100333.94
2022-11-20T15:39:22.752Z,100323.72
2022-11-20T15:41:52.287Z,100311.28
2022-11-20T15:44:22.112Z,100333.59
2022-11-20T15:46:52.065Z,100331.81
2022-11-20T15:49:23.805Z,100325.78
2022-11-20T15:51:57.723Z,100317.56
2022-11-20T15:54:28.799Z,100315.00
2022-11-20T15:56:58.139Z,100288.94
2022-11-20T15:59:27.575Z,100309.69
2022-11-20T16:01:57.234Z,100307.09
2022-11-20T16:04:26.720Z,100308.72
2022-11-20T16:06:56.252Z,100306.78
2022-11-20T16:09:28.294Z,100311.13
2022-11-20T16:12:44.836Z,100307.50
2022-11-20T16:15:33.940Z,100300.03
2022-11-20T16:18:04.728Z,100301.72
2022-11-20T16:20:34.541Z,100262.66
2022-11-20T16:23:07.091Z,100288.91
2022-11-20T16:25:36.602Z,100291.59
2022-11-20T16:28:08.662Z,100292.38
2022-11-20T16:30:38.159Z,100291.44
2022-11-20T16:33:12.345Z,100291.53
2022-11-20T16:35:42.056Z,100292.53
2022-11-20T16:38:14.054Z,100297.50
2022-11-20T16:40:43.636Z,100296.50
2022-11-20T16:43:16.239Z,100295.66
2022-11-20T16:45:47.171Z,100285.53
2022-11-20T16:48:18.474Z,100300.56
2022-11-20T16:50:50.442Z,100247.47
2022-11-20T16:53:20.903Z,100291.59
2022-11-20T16:56:19.404Z,100287.00
2022-11-20T16:58:53.337Z,100321.19
2022-11-20T17:01:24.731Z,100281.66
2022-11-20T17:03:58.049Z,100281.63
2022-11-20T17:06:29.566Z,100283.69
2022-11-20T17:09:00.132Z,100265.16
2022-11-20T17:11:29.956Z,100242.06
2022-11-20T17:14:02.464Z,100265.94
2022-11-20T17:16:35.371Z,100281.03
2022-11-20T17:19:05.744Z,100262.91
2022-11-20T17:21:37.310Z,100271.75
2022-11-20T17:24:09.455Z,100266.84
2022-11-20T17:26:40.668Z,100239.53
2022-11-20T17:29:14.082Z,100283.63
2022-11-20T17:31:43.342Z,100276.03
2022-11-20T17:34:14.574Z,100273.28
2022-11-20T17:36:46.583Z,100263.50
2022-11-20T17:39:19.527Z,100294.13
2022-11-20T17:42:08.601Z,100298.44
2022-11-20T17:45:08.016Z,100289.94
2022-11-20T17:47:37.591Z,100285.34
2022-11-20T17:50:07.378Z,100260.25
2022-11-20T17:52:36.990Z,100307.56
2022-11-20T17:55:11.075Z,100316.88
2022-11-20T17:57:56.854Z,100324.59
2022-11-20T18:00:28.618Z,100314.28
2022-11-20T18:02:59.215Z,100317.13
2022-11-20T18:05:28.608Z,100311.81
2022-11-20T18:07:57.995Z,100315.16
2022-11-20T18:10:30.975Z,100313.59
2022-11-20T18:13:00.574Z,100316.34
2022-11-20T18:15:31.617Z,100156.03
2022-11-20T18:18:03.017Z,100301.56
2022-11-20T18:20:39.660Z,100310.94
2022-11-20T18:23:09.444Z,100300.75
2022-11-20T18:25:39.880Z,100299.66
2022-11-20T18:28:09.802Z,100313.53
2022-11-20T18:30:39.967Z,100319.44
2022-11-20T18:33:08.669Z,100311.06
2022-11-20T18:35:37.376Z,100309.94
2022-11-20T18:38:08.525Z,100303.19
2022-11-20T18:40:37.656Z,100086.09
2022-11-20T18:43:29.607Z,100302.91
2022-11-20T18:46:05.067Z,100277.91
2022-11-20T18:48:33.892Z,100303.50
2022-11-20T18:51:06.765Z,100282.25
2022-11-20T18:53:36.246Z,100298.38
2022-11-20T18:56:05.592Z,100295.66
2022-11-20T18:58:34.432Z,100289.72
2022-11-20T19:01:08.388Z,100271.38
2022-11-20T19:03:37.463Z,100280.34
2022-11-20T19:06:06.949Z,100275.91
2022-11-20T19:08:36.809Z,100159.56
2022-11-20T19:11:09.999Z,100290.47
2022-11-20T19:13:39.967Z,100295.09
2022-11-20T19:16:14.428Z,100293.56
2022-11-20T19:18:45.493Z,100294.69
2022-11-20T19:21:16.055Z,100303.91
2022-11-20T19:23:48.453Z,100281.66
2022-11-20T19:26:18.198Z,100297.59
2022-11-20T19:28:49.751Z,100286.31
2022-11-20T19:31:24.624Z,100324.94
2022-11-20T19:33:57.188Z,100322.19
2022-11-20T19:36:27.802Z,100327.09
2022-11-20T19:38:57.174Z,100315.16
2022-11-20T19:41:31.661Z,100327.00
2022-11-20T19:44:02.393Z,100326.06
2022-11-20T19:46:33.867Z,100305.97
2022-11-20T19:49:04.832Z,100327.84
2022-11-20T19:51:36.464Z,100325.72
2022-11-20T19:54:06.373Z,100319.25
2022-11-20T19:56:35.851Z,100345.81
2022-11-20T19:59:04.847Z,100333.59
2022-11-20T20:01:39.321Z,100323.22
2022-11-20T20:04:09.067Z,100323.94
2022-11-20T20:06:40.034Z,100324.66
2022-11-20T20:09:13.218Z,100311.13
2022-11-20T20:11:46.802Z,100310.31
2022-11-20T20:14:18.396Z,100321.09
2022-11-20T20:16:49.297Z,100315.75
2022-11-20T20:19:20.030Z,100320.47
2022-11-20T20:21:51.036Z,100337.94
2022-11-20T20:24:21.112Z,100351.81
2022-11-20T20:26:51.577Z,100346.94
2022-11-20T20:29:24.481Z,100345.66
2022-11-20T20:31:55.688Z,100334.22
2022-11-20T20:34:29.633Z,100342.22
2022-11-20T20:36:58.909Z,100337.00
2022-11-20T20:39:29.283Z,100340.69
2022-11-20T20:41:58.873Z,100345.25
2022-11-20T20:44:45.126Z,100337.97
2022-11-20T20:47:15.173Z,100357.03
2022-11-20T20:49:44.836Z,100337.25
2022-11-20T20:52:14.980Z,100361.25
2022-11-20T20:54:44.825Z,100371.63
2022-11-20T20:57:13.971Z,100365.53
2022-11-20T20:59:42.614Z,100375.13
2022-11-20T21:02:12.452Z,100375.91
2022-11-20T21:04:43.333Z,100369.09
2022-11-20T21:07:13.147Z,100356.09
2022-11-20T21:09:45.027Z,100359.53
2022-11-20T21:12:13.875Z,100360.38
2022-11-20T21:14:42.778Z,100337.25
2022-11-20T21:17:15.366Z,100364.66
2022-11-20T21:19:45.865Z,100366.94
2022-11-20T21:22:13.613Z,100357.06
2022-11-20T21:24:43.385Z,100357.69
2022-11-20T21:27:13.951Z,100369.81
2022-11-20T21:29:42.818Z,100339.38
2022-11-20T21:32:40.775Z,100381.75
2022-11-20T21:35:11.827Z,100178.28
2022-11-20T21:37:41.999Z,100373.78
2022-11-20T21:40:11.705Z,100385.09
2022-11-20T21:42:41.473Z,100392.97
2022-11-20T21:45:11.185Z,100392.94
2022-11-20T21:47:41.162Z,100392.63
2022-11-20T21:50:12.404Z,100386.19
2022-11-20T21:52:43.856Z,100392.25
2022-11-20T21:55:12.961Z,100404.19
2022-11-20T21:57:42.233Z,100404.09
2022-11-20T22:00:14.151Z,100398.50
2022-11-20T22:02:43.705Z,100397.25
2022-11-20T22:05:14.299Z,100398.16
2022-11-20T22:07:45.928Z,100415.38
2022-11-20T22:10:18.426Z,100429.84
2022-11-20T22:12:48.211Z,100404.38
2022-11-20T22:15:33.021Z,100200.03
2022-11-20T22:18:15.767Z,100405.53
2022-11-20T22:20:47.222Z,100410.66
2022-11-20T22:23:16.661Z,100407.34
2022-11-20T22:25:46.367Z,100409.69
2022-11-20T22:28:16.409Z,100391.06
2022-11-20T22:30:47.124Z,100415.78
2022-11-20T22:33:17.555Z,100370.00
2022-11-20T22:35:48.833Z,100429.81
2022-11-20T22:38:18.852Z,100433.28
2022-11-20T22:40:48.857Z,100435.00
2022-11-20T22:43:18.316Z,100435.00
2022-11-20T22:45:47.888Z,100439.28
2022-11-20T22:48:16.902Z,100425.69
2022-11-20T22:50:48.020Z,100430.03
2022-11-20T22:53:17.635Z,100417.44
2022-11-20T22:55:50.730Z,100435.19
2022-11-20T22:58:21.052Z,100453.00
2022-11-20T23:00:50.374Z,100325.78
2022-11-20T23:03:20.538Z,100465.00
2022-11-20T23:05:51.235Z,100473.19
2022-11-20T23:08:20.946Z,100469.75
2022-11-20T23:10:52.911Z,100476.75
2022-11-20T23:13:23.091Z,100475.84
2022-11-20T23:15:53.070Z,100482.72
2022-11-20T23:18:24.624Z,100478.59
2022-11-20T23:20:55.361Z,100487.91
2022-11-20T23:23:24.176Z,100446.38
2022-11-20T23:25:55.923Z,100492.97
2022-11-20T23:28:24.916Z,100498.88
2022-11-20T23:30:56.085Z,100499.69
2022-11-20T23:33:25.386Z,100499.69
2022-11-20T23:35:58.385Z,100492.94
2022-11-20T23:38:27.973Z,100496.00
2022-11-20T23:40:57.160Z,100485.41
2022-11-20T23:43:26.465Z,100487.75
2022-11-20T23:45:57.898Z,100493.75
2022-11-20T23:48:28.757Z,100492.03
2022-11-20T23:50:59.446Z,100495.50
2022-11-20T23:53:29.614Z,100472.69
2022-11-20T23:56:00.796Z,100499.81
2022-11-20T23:58:33.491Z,100508.88
